Preview of NWS' New Version of Forecast
This preview is not operational and should not be used for support decisions.

Terminal Aerodrome Forecast (TAF)

Issued by National Weather Service (NWS)

                            
000
FTUS42 KKEY 210858 AAA
TAFEYW
TAF AMD
KEYW 210858Z 2109/2206 01007KT P6SM FEW015 SCT020
      TEMPO 2110/2114 BKN016
     FM211800 34014G22KT P6SM SCT025=